Terminal Aerodrome Forecast
Issued by NWS Boston, MA

Home | Current Version | Previous Version | Text Only | Print | Product List | Glossary On
Versions: 1 2 3 4 5 6 7 8 9 10 11 12 13 14 15 16 17 18 19 20 21 22 23 24 25 26 27 28 29 30 31 32 33 34 35 36 37 38 39 40 41 42 43 44 45 46 47
000
FTUS41 KBOX 241507 AAA
TAFPVD
TAF AMD
KPVD 241507Z 2415/2512 17018G32KT 3SM -SHRA OVC008 WS020/19045KT
     FM241800 19013G30KT P6SM BKN008 WS020/22045KT
     FM250300 21011G23KT P6SM BKN010
     FM250600 22009KT P6SM BKN010
     FM250700 22008KT P6SM BKN250=

USA.gov is the U.S. government's official web portal to all federal, state and local government web resources and services.